createdAt,value
2023-05-11T00:01:12.991Z,8.50
2023-05-11T00:03:39.725Z,8.50
2023-05-11T00:06:06.571Z,8.50
2023-05-11T00:08:33.288Z,8.50
2023-05-11T00:11:02.872Z,8.50
2023-05-11T00:13:29.646Z,8.50
2023-05-11T00:15:56.429Z,8.50
2023-05-11T00:18:23.231Z,8.60
2023-05-11T00:20:50.239Z,8.40
2023-05-11T00:23:17.018Z,8.30
2023-05-11T00:25:43.716Z,8.40
2023-05-11T00:28:10.725Z,8.40
2023-05-11T00:30:39.477Z,8.30
2023-05-11T00:33:06.190Z,8.30
2023-05-11T00:35:33.048Z,8.30
2023-05-11T00:37:59.753Z,8.40
2023-05-11T00:40:26.517Z,8.40
2023-05-11T00:42:53.163Z,8.40
2023-05-11T00:45:20.027Z,8.40
2023-05-11T00:47:47.425Z,8.40
2023-05-11T00:50:14.373Z,8.40
2023-05-11T00:52:42.001Z,8.40
2023-05-11T00:55:10.147Z,8.30
2023-05-11T00:57:38.176Z,8.30
2023-05-11T01:00:07.041Z,8.40
2023-05-11T01:02:34.142Z,8.40
2023-05-11T01:05:01.855Z,8.40
2023-05-11T01:07:31.671Z,8.30
2023-05-11T01:10:11.041Z,8.40
2023-05-11T01:13:10.462Z,8.30
2023-05-11T01:15:56.606Z,8.20
2023-05-11T01:18:33.731Z,8.10
2023-05-11T01:21:08.296Z,8.20
2023-05-11T01:23:49.813Z,8.20
2023-05-11T01:26:24.839Z,8.10
2023-05-11T01:29:06.082Z,8.20
2023-05-11T01:31:34.601Z,8.20
2023-05-11T01:34:09.979Z,8.00
2023-05-11T01:36:49.240Z,7.80
2023-05-11T01:39:20.474Z,7.90
2023-05-11T01:41:53.115Z,7.60
2023-05-11T01:44:22.548Z,7.60
2023-05-11T01:46:50.532Z,7.50
2023-05-11T01:49:18.909Z,7.60
2023-05-11T01:51:49.416Z,7.60
2023-05-11T01:54:18.856Z,7.60
2023-05-11T01:56:47.220Z,7.70
2023-05-11T01:59:14.817Z,7.70
2023-05-11T02:01:41.656Z,7.70
2023-05-11T02:04:10.965Z,7.60
2023-05-11T02:06:39.278Z,7.60
2023-05-11T02:09:08.615Z,7.60
2023-05-11T02:11:36.810Z,7.50
2023-05-11T02:14:05.499Z,7.50
2023-05-11T02:16:33.190Z,7.60
2023-05-11T02:19:00.301Z,7.50
2023-05-11T02:21:28.322Z,7.50
2023-05-11T02:23:56.055Z,7.50
2023-05-11T02:26:22.817Z,7.40
2023-05-11T02:28:50.023Z,7.40
2023-05-11T02:31:19.787Z,7.20
2023-05-11T02:33:52.490Z,7.10
2023-05-11T02:36:24.464Z,7.10
2023-05-11T02:38:58.681Z,7.10
2023-05-11T02:41:29.560Z,7.20
2023-05-11T02:44:02.709Z,7.20
2023-05-11T02:46:34.859Z,7.20
2023-05-11T02:49:05.100Z,7.30
2023-05-11T02:51:37.742Z,7.40
2023-05-11T02:54:09.718Z,7.30
2023-05-11T02:56:41.474Z,7.30
2023-05-11T02:59:08.858Z,7.30
2023-05-11T03:01:36.050Z,7.10
2023-05-11T03:04:06.049Z,7.00
2023-05-11T03:06:33.430Z,7.10
2023-05-11T03:09:02.106Z,7.00
2023-05-11T03:11:31.409Z,7.00
2023-05-11T03:13:58.704Z,7.20
2023-05-11T03:16:26.727Z,7.20
2023-05-11T03:18:55.494Z,7.30
2023-05-11T03:21:23.921Z,7.30
2023-05-11T03:23:50.966Z,7.30
2023-05-11T03:26:19.008Z,7.10
2023-05-11T03:28:47.687Z,7.10
2023-05-11T03:31:14.900Z,7.10
2023-05-11T03:33:41.821Z,7.20
2023-05-11T03:36:11.597Z,7.20
2023-05-11T03:38:39.633Z,7.20
2023-05-11T03:41:08.486Z,7.30
2023-05-11T03:43:38.856Z,7.30
2023-05-11T03:46:07.198Z,7.40
2023-05-11T03:48:34.323Z,7.50
2023-05-11T03:51:01.210Z,7.30
2023-05-11T03:53:28.266Z,6.90
2023-05-11T03:55:55.000Z,7.00
2023-05-11T03:58:22.651Z,7.00
2023-05-11T04:00:49.737Z,7.00
2023-05-11T04:03:18.203Z,7.00
2023-05-11T04:05:45.447Z,6.90
2023-05-11T04:08:13.270Z,6.90
2023-05-11T04:10:39.992Z,6.70
2023-05-11T04:13:06.898Z,6.70
2023-05-11T04:15:35.123Z,6.80
2023-05-11T04:18:01.897Z,6.90
2023-05-11T04:20:28.639Z,6.90
2023-05-11T04:22:55.318Z,6.80
2023-05-11T04:25:22.588Z,6.80
2023-05-11T04:27:49.280Z,6.90
2023-05-11T04:30:16.252Z,7.00
2023-05-11T04:32:43.218Z,7.00
2023-05-11T04:35:10.267Z,6.90
2023-05-11T04:37:38.764Z,7.00
2023-05-11T04:40:08.187Z,7.10
2023-05-11T04:42:39.941Z,7.00
2023-05-11T04:45:10.546Z,7.00
2023-05-11T04:47:37.732Z,6.80
2023-05-11T04:50:06.273Z,6.70
2023-05-11T04:52:34.992Z,6.80
2023-05-11T04:55:01.824Z,6.80
2023-05-11T04:57:28.662Z,6.80
2023-05-11T04:59:55.877Z,6.80
2023-05-11T05:02:22.618Z,6.80
2023-05-11T05:04:49.316Z,6.70
2023-05-11T05:07:16.030Z,6.80
2023-05-11T05:09:45.204Z,6.80
2023-05-11T05:12:13.382Z,6.70
2023-05-11T05:14:40.145Z,6.70
2023-05-11T05:17:07.502Z,6.60
2023-05-11T05:19:34.309Z,6.70
2023-05-11T05:22:01.057Z,6.60
2023-05-11T05:24:27.757Z,6.60
2023-05-11T05:26:54.392Z,6.70
2023-05-11T05:29:21.306Z,6.80
2023-05-11T05:31:48.605Z,6.80
2023-05-11T05:34:16.745Z,6.90
2023-05-11T05:36:43.972Z,6.90
2023-05-11T05:39:12.015Z,6.80
2023-05-11T05:41:39.515Z,6.80
2023-05-11T05:44:08.505Z,6.90
2023-05-11T05:46:35.399Z,6.80
2023-05-11T05:49:02.201Z,6.60
2023-05-11T05:51:29.977Z,6.60
2023-05-11T05:53:56.719Z,6.60
2023-05-11T05:56:23.422Z,6.60
2023-05-11T05:58:50.116Z,6.70
2023-05-11T06:01:16.855Z,6.80
2023-05-11T06:03:45.102Z,6.80
2023-05-11T06:06:12.021Z,6.80
2023-05-11T06:08:38.720Z,7.00
2023-05-11T06:11:05.609Z,7.20
2023-05-11T06:13:32.295Z,7.40
2023-05-11T06:15:59.999Z,7.40
2023-05-11T06:18:32.034Z,7.60
2023-05-11T06:20:59.698Z,7.80
2023-05-11T06:23:27.924Z,7.70
2023-05-11T06:25:54.670Z,7.80
2023-05-11T06:28:24.388Z,7.60
2023-05-11T06:30:55.823Z,7.70
2023-05-11T06:33:22.594Z,7.90
2023-05-11T06:35:49.531Z,8.10
2023-05-11T06:38:16.556Z,8.30
2023-05-11T06:40:43.310Z,8.40
2023-05-11T06:43:10.012Z,8.50
2023-05-11T06:45:48.249Z,8.60
2023-05-11T06:48:15.347Z,8.80
2023-05-11T06:50:42.057Z,8.30
2023-05-11T06:53:12.718Z,8.40
2023-05-11T06:55:39.896Z,8.50
2023-05-11T06:58:06.925Z,8.40
2023-05-11T07:00:34.174Z,8.50
2023-05-11T07:03:00.879Z,8.60
2023-05-11T07:05:28.009Z,8.20
2023-05-11T07:07:54.690Z,8.20
2023-05-11T07:10:21.510Z,8.40
2023-05-11T07:12:48.910Z,8.50
2023-05-11T07:15:15.580Z,8.70
2023-05-11T07:17:42.345Z,8.60
2023-05-11T07:20:09.433Z,8.60
2023-05-11T07:22:36.162Z,8.70
2023-05-11T07:25:02.959Z,8.70
2023-05-11T07:27:31.096Z,8.70
2023-05-11T07:29:57.755Z,8.60
2023-05-11T07:32:24.441Z,8.80
2023-05-11T07:34:51.153Z,9.00
2023-05-11T07:37:18.272Z,9.10
2023-05-11T07:39:44.930Z,9.20
2023-05-11T07:42:12.658Z,9.00
2023-05-11T07:44:39.349Z,9.10
2023-05-11T07:47:06.149Z,9.20
2023-05-11T07:49:43.091Z,9.30
2023-05-11T07:52:11.072Z,9.00
2023-05-11T07:54:37.957Z,9.10
2023-05-11T07:57:05.253Z,8.90
2023-05-11T07:59:32.203Z,8.50
2023-05-11T08:01:59.452Z,8.50
2023-05-11T08:04:27.064Z,8.50
2023-05-11T08:06:53.829Z,8.30
2023-05-11T08:09:20.481Z,8.40
2023-05-11T08:11:47.151Z,8.60
2023-05-11T08:14:14.312Z,8.70
2023-05-11T08:16:41.248Z,8.70
2023-05-11T08:19:08.181Z,8.80
2023-05-11T08:21:35.812Z,8.80
2023-05-11T08:24:02.924Z,8.70
2023-05-11T08:26:29.715Z,8.60
2023-05-11T08:28:56.352Z,8.60
2023-05-11T08:31:23.056Z,8.80
2023-05-11T08:33:49.877Z,8.70
2023-05-11T08:36:16.655Z,8.80
2023-05-11T08:38:43.488Z,8.80
2023-05-11T08:41:12.342Z,8.80
2023-05-11T08:43:40.369Z,8.80
2023-05-11T08:46:08.583Z,8.90
2023-05-11T08:48:35.951Z,8.80
2023-05-11T08:51:04.282Z,8.80
2023-05-11T08:53:31.205Z,8.70
2023-05-11T08:55:59.623Z,8.80
2023-05-11T08:58:27.426Z,9.00
2023-05-11T09:00:55.476Z,9.20
2023-05-11T09:03:22.715Z,9.30
2023-05-11T09:05:50.114Z,9.30
2023-05-11T09:08:18.920Z,9.30
2023-05-11T09:10:46.375Z,9.50
2023-05-11T09:13:13.329Z,9.30
2023-05-11T09:15:40.191Z,9.30
2023-05-11T09:18:07.036Z,9.40
2023-05-11T09:20:34.492Z,9.50
2023-05-11T09:23:01.659Z,9.50
2023-05-11T09:25:33.524Z,9.40
2023-05-11T09:28:00.825Z,9.20
2023-05-11T09:30:28.268Z,9.30
2023-05-11T09:32:57.044Z,9.30
2023-05-11T09:35:32.424Z,9.50
2023-05-11T09:38:10.037Z,9.90
2023-05-11T09:40:44.698Z,10.00
2023-05-11T09:43:24.489Z,10.20
2023-05-11T09:45:53.816Z,10.30
2023-05-11T09:48:20.671Z,10.10
2023-05-11T09:50:48.569Z,10.10
2023-05-11T09:53:15.370Z,10.20
2023-05-11T09:55:55.739Z,10.40
2023-05-11T09:58:22.417Z,10.60
2023-05-11T10:00:53.747Z,10.50
2023-05-11T10:03:20.925Z,10.60
2023-05-11T10:05:59.785Z,10.70
2023-05-11T10:08:30.752Z,10.70
2023-05-11T10:10:58.231Z,10.60
2023-05-11T10:13:26.420Z,10.50
2023-05-11T10:15:54.813Z,10.50
2023-05-11T10:18:21.772Z,10.50
2023-05-11T10:20:48.644Z,10.50
2023-05-11T10:23:17.613Z,10.40
2023-05-11T10:25:45.184Z,10.30
2023-05-11T10:28:11.930Z,10.20
2023-05-11T10:30:38.970Z,10.30
2023-05-11T10:33:06.839Z,10.30
2023-05-11T10:35:34.709Z,10.40
2023-05-11T10:38:01.531Z,10.30
2023-05-11T10:40:28.537Z,10.40
2023-05-11T10:43:01.045Z,10.40
2023-05-11T10:45:33.710Z,10.30
2023-05-11T10:48:41.721Z,9.80
2023-05-11T10:51:29.629Z,9.70
2023-05-11T10:54:21.668Z,9.80
2023-05-11T10:56:54.735Z,10.00
2023-05-11T10:59:55.961Z,10.10
2023-05-11T11:02:22.732Z,10.20
2023-05-11T11:04:51.551Z,10.30
2023-05-11T11:07:19.679Z,10.20
2023-05-11T11:09:57.151Z,10.30
2023-05-11T11:12:26.790Z,10.50
2023-05-11T11:15:08.017Z,10.60
2023-05-11T11:17:36.135Z,10.60
2023-05-11T11:20:07.288Z,10.60
2023-05-11T11:22:41.131Z,10.60
2023-05-11T11:25:12.077Z,10.70
2023-05-11T11:27:41.988Z,10.50
2023-05-11T11:30:21.519Z,10.60
2023-05-11T11:32:50.513Z,10.60
2023-05-11T11:35:42.471Z,10.60
2023-05-11T11:38:11.981Z,10.60
2023-05-11T11:43:14.178Z,10.60
2023-05-11T11:45:53.933Z,10.80
2023-05-11T11:48:23.693Z,10.80
2023-05-11T11:51:10.474Z,10.90
2023-05-11T11:53:37.407Z,10.90
2023-05-11T11:56:05.335Z,10.60
2023-05-11T11:58:46.787Z,10.60
2023-05-11T12:01:14.690Z,10.80
2023-05-11T12:03:43.631Z,10.90
2023-05-11T12:06:12.126Z,11.10
2023-05-11T12:08:40.485Z,11.20
2023-05-11T12:11:07.945Z,11.40
2023-05-11T12:13:35.450Z,11.60
2023-05-11T12:16:09.273Z,11.70
2023-05-11T12:18:36.451Z,11.80
2023-05-11T12:21:03.269Z,11.80
2023-05-11T12:23:30.585Z,11.90
2023-05-11T12:26:07.284Z,12.10
2023-05-11T12:28:33.957Z,12.20
2023-05-11T12:31:01.078Z,12.30
2023-05-11T12:33:28.219Z,12.20
2023-05-11T12:35:56.567Z,12.30
2023-05-11T12:38:23.556Z,12.40
2023-05-11T12:40:51.981Z,12.30
2023-05-11T12:43:20.280Z,12.40
2023-05-11T12:45:47.468Z,12.40
2023-05-11T12:48:14.752Z,12.50
2023-05-11T12:50:46.325Z,12.50
2023-05-11T12:53:19.809Z,12.60
2023-05-11T12:55:57.721Z,12.60
2023-05-11T12:58:24.539Z,12.80
2023-05-11T13:00:56.280Z,12.80
2023-05-11T13:03:23.951Z,12.90
2023-05-11T13:05:51.497Z,12.90
2023-05-11T13:08:21.420Z,13.00
2023-05-11T13:10:48.155Z,13.10
2023-05-11T13:13:28.355Z,13.00
2023-05-11T13:15:55.236Z,13.10
2023-05-11T13:18:22.940Z,13.20
2023-05-11T13:21:05.536Z,13.30
2023-05-11T13:23:32.386Z,13.30
2023-05-11T13:25:59.200Z,13.30
2023-05-11T13:28:26.437Z,13.20
2023-05-11T13:31:02.254Z,13.10
2023-05-11T13:33:29.177Z,13.00
2023-05-11T13:35:56.033Z,12.70
2023-05-11T13:38:22.719Z,12.50
2023-05-11T13:40:49.399Z,12.40
2023-05-11T13:43:16.275Z,12.20
2023-05-11T13:45:43.027Z,12.10
2023-05-11T13:48:10.703Z,12.20
2023-05-11T13:50:37.660Z,12.10
2023-05-11T13:53:04.370Z,12.10
2023-05-11T13:55:31.091Z,12.10
2023-05-11T13:57:58.131Z,12.10
2023-05-11T14:00:25.013Z,12.10
2023-05-11T14:02:52.908Z,12.10
2023-05-11T14:05:20.065Z,12.10
2023-05-11T14:07:49.015Z,12.20
2023-05-11T14:10:17.228Z,12.20
2023-05-11T14:12:44.186Z,12.20
2023-05-11T14:15:11.405Z,12.30
2023-05-11T14:17:38.341Z,12.30
2023-05-11T14:20:06.106Z,12.30
2023-05-11T14:22:32.824Z,12.40
2023-05-11T14:24:59.988Z,12.50
2023-05-11T14:27:26.789Z,12.50
2023-05-11T14:29:54.936Z,12.40
2023-05-11T14:32:21.664Z,12.40
2023-05-11T14:34:48.792Z,12.30
2023-05-11T14:37:15.665Z,12.30
2023-05-11T14:39:42.340Z,12.10
2023-05-11T14:42:09.102Z,12.00
2023-05-11T14:44:35.835Z,11.70
2023-05-11T14:47:02.609Z,11.70
2023-05-11T14:49:29.395Z,11.50
2023-05-11T14:51:57.573Z,11.30
2023-05-11T14:54:24.341Z,11.00
2023-05-11T14:56:55.807Z,10.80
2023-05-11T14:59:24.391Z,10.60
2023-05-11T15:01:51.521Z,10.50
2023-05-11T15:04:18.921Z,10.50
2023-05-11T15:06:46.110Z,10.40
2023-05-11T15:09:12.801Z,10.40
2023-05-11T15:11:39.543Z,10.30
2023-05-11T15:14:10.498Z,10.30
2023-05-11T15:16:37.562Z,10.30
2023-05-11T15:19:05.871Z,10.30
2023-05-11T15:21:32.603Z,10.30
2023-05-11T15:23:59.291Z,10.20
2023-05-11T15:26:26.049Z,10.20
2023-05-11T15:28:52.713Z,10.10
2023-05-11T15:31:19.421Z,10.10
2023-05-11T15:33:46.141Z,10.20
2023-05-11T15:36:15.177Z,10.30
2023-05-11T15:38:43.147Z,10.30
2023-05-11T15:41:09.973Z,10.30
2023-05-11T15:43:36.651Z,10.20
2023-05-11T15:46:03.866Z,10.20
2023-05-11T15:48:31.143Z,10.30
2023-05-11T15:50:59.693Z,10.30
2023-05-11T15:53:27.184Z,10.50
2023-05-11T15:55:55.363Z,10.60
2023-05-11T15:58:22.776Z,10.70
2023-05-11T16:00:49.596Z,10.70
2023-05-11T16:03:16.770Z,10.70
2023-05-11T16:05:44.615Z,10.80
2023-05-11T16:08:11.529Z,10.80
2023-05-11T16:10:38.339Z,10.80
2023-05-11T16:13:05.301Z,10.90
2023-05-11T16:15:32.935Z,10.80
2023-05-11T16:18:01.021Z,10.80
2023-05-11T16:20:30.114Z,10.70
2023-05-11T16:22:56.816Z,10.70
2023-05-11T16:25:24.049Z,10.60
2023-05-11T16:27:50.827Z,10.60
2023-05-11T16:30:23.470Z,10.50
2023-05-11T16:32:52.331Z,10.60
2023-05-11T16:35:19.166Z,10.60
2023-05-11T16:37:47.653Z,10.50
2023-05-11T16:40:14.571Z,10.50
2023-05-11T16:42:41.388Z,10.50
2023-05-11T16:45:08.672Z,10.40
2023-05-11T16:47:35.753Z,10.40
2023-05-11T16:50:02.483Z,10.40
2023-05-11T16:52:29.123Z,10.30
2023-05-11T16:54:58.952Z,10.40
2023-05-11T16:57:26.660Z,10.40
2023-05-11T16:59:53.308Z,10.30
2023-05-11T17:02:20.795Z,10.30
2023-05-11T17:04:47.960Z,10.20
2023-05-11T17:07:15.625Z,10.10
2023-05-11T17:09:42.764Z,10.00
2023-05-11T17:12:10.429Z,10.00
2023-05-11T17:14:37.159Z,9.90
2023-05-11T17:17:04.876Z,9.80
2023-05-11T17:19:31.749Z,9.80
2023-05-11T17:21:58.668Z,9.80
2023-05-11T17:24:25.535Z,9.80
2023-05-11T17:26:52.285Z,9.80
2023-05-11T17:29:19.034Z,9.90
2023-05-11T17:31:48.792Z,9.90
2023-05-11T17:34:16.523Z,10.00
2023-05-11T17:36:43.565Z,10.00
2023-05-11T17:39:11.868Z,9.90
2023-05-11T17:41:38.799Z,10.00
2023-05-11T17:44:05.825Z,9.90
2023-05-11T17:46:32.714Z,9.90
2023-05-11T17:48:59.426Z,9.90
2023-05-11T17:51:26.127Z,9.90
2023-05-11T17:53:52.856Z,9.90
2023-05-11T17:56:19.608Z,9.80
2023-05-11T17:58:46.273Z,9.80
2023-05-11T18:01:16.671Z,9.70
2023-05-11T18:03:43.585Z,9.70
2023-05-11T18:06:10.555Z,9.70
2023-05-11T18:08:37.211Z,9.70
2023-05-11T18:11:04.531Z,9.70
2023-05-11T18:13:31.601Z,9.70
2023-05-11T18:15:59.271Z,9.70
2023-05-11T18:18:26.258Z,9.70
2023-05-11T18:20:53.718Z,9.70
2023-05-11T18:23:20.611Z,9.60
2023-05-11T18:25:48.350Z,9.60
2023-05-11T18:28:15.128Z,9.60
2023-05-11T18:30:41.815Z,9.50
2023-05-11T18:33:08.585Z,9.50
2023-05-11T18:35:36.005Z,9.50
2023-05-11T18:38:04.612Z,9.40
2023-05-11T18:40:31.294Z,9.50
2023-05-11T18:42:57.932Z,9.50
2023-05-11T18:45:25.023Z,9.40
2023-05-11T18:47:51.928Z,9.40
2023-05-11T18:50:18.955Z,9.40
2023-05-11T18:52:45.732Z,9.40
2023-05-11T18:55:12.754Z,9.40
2023-05-11T18:57:40.419Z,9.30
2023-05-11T19:00:07.911Z,9.20
2023-05-11T19:02:36.489Z,9.10
2023-05-11T19:05:06.957Z,9.10
2023-05-11T19:07:33.618Z,9.10
2023-05-11T19:10:00.349Z,9.00
2023-05-11T19:12:27.252Z,9.00
2023-05-11T19:14:56.882Z,8.90
2023-05-11T19:17:23.720Z,8.90
2023-05-11T19:19:52.063Z,8.80
2023-05-11T19:22:20.512Z,8.80
2023-05-11T19:24:47.200Z,8.70
2023-05-11T19:27:15.357Z,8.70
2023-05-11T19:29:42.685Z,8.60
2023-05-11T19:32:09.378Z,8.60
2023-05-11T19:34:36.433Z,8.60
2023-05-11T19:37:03.167Z,8.60
2023-05-11T19:39:29.833Z,8.60
2023-05-11T19:41:56.516Z,8.50
2023-05-11T19:44:23.151Z,8.50
2023-05-11T19:46:49.844Z,8.40
2023-05-11T19:49:17.350Z,8.30
2023-05-11T19:51:44.074Z,8.30
2023-05-11T19:54:11.562Z,8.30
2023-05-11T19:56:39.276Z,8.30
2023-05-11T19:59:06.055Z,8.30
2023-05-11T20:01:32.966Z,8.40
2023-05-11T20:03:59.803Z,8.30
2023-05-11T20:06:26.678Z,8.30
2023-05-11T20:08:54.139Z,8.20
2023-05-11T20:11:22.028Z,8.10
2023-05-11T20:13:49.234Z,8.00
2023-05-11T20:16:16.056Z,7.80
2023-05-11T20:18:43.004Z,7.70
2023-05-11T20:21:09.866Z,7.70
2023-05-11T20:23:37.590Z,7.70
2023-05-11T20:26:04.813Z,7.60
2023-05-11T20:28:31.989Z,7.60
2023-05-11T20:30:58.996Z,7.50
2023-05-11T20:35:55.509Z,7.40
2023-05-11T20:38:22.252Z,7.50
2023-05-11T20:40:49.023Z,7.50
2023-05-11T20:43:16.655Z,7.50
2023-05-11T20:45:43.736Z,7.50
2023-05-11T20:48:10.883Z,7.40
2023-05-11T20:50:39.247Z,7.30
2023-05-11T20:53:06.081Z,7.30
2023-05-11T20:55:33.009Z,7.30
2023-05-11T20:57:59.673Z,7.30
2023-05-11T21:00:26.453Z,7.30
2023-05-11T21:02:53.200Z,7.30
2023-05-11T21:05:20.276Z,7.20
2023-05-11T21:07:46.967Z,7.10
2023-05-11T21:10:14.018Z,7.20
2023-05-11T21:12:40.777Z,7.30
2023-05-11T21:15:08.043Z,7.20
2023-05-11T21:17:35.666Z,7.20
2023-05-11T21:20:06.176Z,7.20
2023-05-11T21:22:33.701Z,7.10
2023-05-11T21:25:01.038Z,7.10
2023-05-11T21:27:27.795Z,7.10
2023-05-11T21:29:54.461Z,7.00
2023-05-11T21:32:21.222Z,7.00
2023-05-11T21:34:48.016Z,6.90
2023-05-11T21:37:14.958Z,6.90
2023-05-11T21:39:42.096Z,7.00
2023-05-11T21:42:08.769Z,7.00
2023-05-11T21:44:35.474Z,6.90
2023-05-11T21:47:02.183Z,6.90
2023-05-11T21:49:28.878Z,6.90
2023-05-11T21:51:55.590Z,6.80
2023-05-11T21:54:22.412Z,6.80
2023-05-11T21:56:50.029Z,6.80
2023-05-11T21:59:17.006Z,6.80
2023-05-11T22:01:43.841Z,6.70
2023-05-11T22:04:10.897Z,6.70
2023-05-11T22:06:37.818Z,6.60
2023-05-11T22:09:05.191Z,6.50
2023-05-11T22:11:33.277Z,6.40
2023-05-11T22:13:59.942Z,6.40
2023-05-11T22:16:26.588Z,6.40
2023-05-11T22:18:53.271Z,6.30
2023-05-11T22:21:19.956Z,6.30
2023-05-11T22:23:46.717Z,6.20
2023-05-11T22:26:13.363Z,6.20
2023-05-11T22:28:40.013Z,6.20
2023-05-11T22:31:07.792Z,6.20
2023-05-11T22:33:34.491Z,6.30
2023-05-11T22:36:01.419Z,6.30
2023-05-11T22:38:28.235Z,6.30
2023-05-11T22:40:54.895Z,6.30
2023-05-11T22:43:21.964Z,6.20
2023-05-11T22:45:49.338Z,6.30
2023-05-11T22:48:16.675Z,6.30
2023-05-11T22:50:47.310Z,6.40
2023-05-11T22:53:14.276Z,6.50
2023-05-11T22:55:42.076Z,6.50
2023-05-11T22:58:08.729Z,6.60
2023-05-11T23:00:36.160Z,6.60
2023-05-11T23:03:03.374Z,6.50
2023-05-11T23:05:30.436Z,6.50
2023-05-11T23:07:59.634Z,6.50
2023-05-11T23:10:28.478Z,6.50
2023-05-11T23:12:55.800Z,6.40
2023-05-11T23:15:22.499Z,6.30
2023-05-11T23:17:49.228Z,6.30
2023-05-11T23:20:16.868Z,6.30
2023-05-11T23:22:43.674Z,6.20
2023-05-11T23:25:10.773Z,6.20
2023-05-11T23:27:37.529Z,6.20
2023-05-11T23:30:04.969Z,6.20
2023-05-11T23:32:31.866Z,6.30
2023-05-11T23:34:58.827Z,6.10
2023-05-11T23:37:25.554Z,6.10
2023-05-11T23:39:52.668Z,6.00
2023-05-11T23:42:19.500Z,5.90
2023-05-11T23:44:46.323Z,6.00
2023-05-11T23:47:13.095Z,6.10
2023-05-11T23:49:39.833Z,6.20
2023-05-11T23:52:07.173Z,6.40
2023-05-11T23:54:34.001Z,6.40
2023-05-11T23:57:02.022Z,6.50
2023-05-11T23:59:28.697Z,6.60
